createdAt,value
2022-07-28T00:00:54.253Z,15.58
2022-07-28T00:03:21.201Z,15.62
2022-07-28T00:05:49.476Z,15.60
2022-07-28T00:08:17.160Z,15.65
2022-07-28T00:10:44.230Z,15.58
2022-07-28T00:13:11.252Z,15.61
2022-07-28T00:15:38.317Z,15.57
2022-07-28T00:18:05.201Z,15.59
2022-07-28T00:20:32.167Z,15.58
2022-07-28T00:22:59.090Z,15.54
2022-07-28T00:25:26.035Z,15.46
2022-07-28T00:27:53.394Z,15.43
2022-07-28T00:30:20.492Z,15.47
2022-07-28T00:32:47.628Z,15.43
2022-07-28T00:35:14.938Z,15.41
2022-07-28T00:37:42.934Z,15.47
2022-07-28T00:40:10.508Z,15.43
2022-07-28T00:42:37.573Z,15.34
2022-07-28T00:45:05.327Z,15.33
2022-07-28T00:47:33.701Z,15.26
2022-07-28T00:50:03.053Z,15.32
2022-07-28T00:52:30.321Z,15.29
2022-07-28T00:54:58.409Z,15.21
2022-07-28T00:57:25.289Z,15.29
2022-07-28T00:59:52.164Z,15.24
2022-07-28T01:02:19.821Z,15.24
2022-07-28T01:04:47.426Z,15.23
2022-07-28T01:07:34.842Z,15.24
2022-07-28T01:10:10.604Z,15.22
2022-07-28T01:13:00.300Z,15.22
2022-07-28T01:15:36.701Z,15.16
2022-07-28T01:18:10.471Z,15.09
2022-07-28T01:20:47.900Z,15.08
2022-07-28T01:23:33.251Z,15.13
2022-07-28T01:26:30.490Z,15.12
2022-07-28T01:29:28.060Z,15.07
2022-07-28T01:32:08.598Z,14.97
2022-07-28T01:34:52.237Z,14.98
2022-07-28T01:37:25.006Z,14.96
2022-07-28T01:39:56.165Z,14.89
2022-07-28T01:42:27.782Z,14.87
2022-07-28T01:44:57.757Z,14.86
2022-07-28T01:47:28.053Z,14.91
2022-07-28T01:49:56.932Z,14.82
2022-07-28T01:52:25.104Z,14.78
2022-07-28T01:54:53.691Z,14.82
2022-07-28T01:57:21.376Z,14.83
2022-07-28T01:59:49.765Z,14.77
2022-07-28T02:02:18.815Z,14.75
2022-07-28T02:04:48.334Z,14.82
2022-07-28T02:07:17.979Z,14.83
2022-07-28T02:09:47.231Z,14.89
2022-07-28T02:12:17.107Z,14.91
2022-07-28T02:14:48.683Z,14.89
2022-07-28T02:17:19.606Z,14.86
2022-07-28T02:19:48.707Z,14.79
2022-07-28T02:22:17.008Z,14.79
2022-07-28T02:24:45.540Z,14.80
2022-07-28T02:27:21.110Z,14.78
2022-07-28T02:29:51.641Z,14.79
2022-07-28T02:32:40.973Z,14.92
2022-07-28T02:35:44.769Z,14.92
2022-07-28T02:38:24.645Z,14.83
2022-07-28T02:40:59.571Z,14.85
2022-07-28T02:43:49.425Z,14.79
2022-07-28T02:46:22.196Z,14.83
2022-07-28T02:48:52.405Z,14.82
2022-07-28T02:51:23.460Z,14.81
2022-07-28T02:53:52.032Z,14.81
2022-07-28T02:56:19.948Z,14.81
2022-07-28T02:58:47.250Z,14.81
2022-07-28T03:01:18.277Z,14.79
2022-07-28T03:03:48.210Z,14.78
2022-07-28T03:06:20.315Z,14.92
2022-07-28T03:08:57.510Z,14.93
2022-07-28T03:11:24.834Z,14.89
2022-07-28T03:13:52.023Z,14.89
2022-07-28T03:16:19.341Z,14.87
2022-07-28T03:18:46.547Z,14.94
2022-07-28T03:21:13.436Z,14.95
2022-07-28T03:23:43.141Z,14.89
2022-07-28T03:26:16.407Z,14.94
2022-07-28T03:28:44.972Z,14.93
2022-07-28T03:31:13.609Z,14.85
2022-07-28T03:33:40.897Z,14.96
2022-07-28T03:36:15.548Z,15.07
2022-07-28T03:38:54.048Z,15.04
2022-07-28T03:41:22.183Z,14.99
2022-07-28T03:43:50.312Z,14.93
2022-07-28T03:46:17.553Z,14.94
2022-07-28T03:48:44.798Z,14.93
2022-07-28T03:51:12.103Z,14.98
2022-07-28T03:53:40.386Z,14.98
2022-07-28T03:56:07.289Z,14.92
2022-07-28T03:58:34.402Z,14.96
2022-07-28T04:01:01.344Z,14.93
2022-07-28T04:03:42.726Z,14.89
2022-07-28T04:06:14.007Z,14.93
2022-07-28T04:08:41.294Z,14.94
2022-07-28T04:11:08.407Z,15.03
2022-07-28T04:13:36.749Z,15.00
2022-07-28T04:16:04.410Z,14.99
2022-07-28T04:18:34.385Z,14.96
2022-07-28T04:21:04.468Z,14.95
2022-07-28T04:23:31.464Z,15.04
2022-07-28T04:26:17.557Z,15.12
2022-07-28T04:29:03.422Z,15.09
2022-07-28T04:31:30.811Z,15.03
2022-07-28T04:33:57.918Z,15.12
2022-07-28T04:36:26.211Z,15.11
2022-07-28T04:38:54.232Z,15.23
2022-07-28T04:41:21.150Z,15.36
2022-07-28T04:43:48.466Z,15.28
2022-07-28T04:46:15.570Z,15.26
2022-07-28T04:48:43.136Z,15.31
2022-07-28T04:51:10.333Z,15.34
2022-07-28T04:53:38.960Z,15.23
2022-07-28T04:56:06.058Z,15.30
2022-07-28T04:58:33.154Z,15.31
2022-07-28T05:01:00.247Z,15.29
2022-07-28T05:03:27.188Z,15.48
2022-07-28T05:05:55.133Z,15.47
2022-07-28T05:08:26.333Z,15.52
2022-07-28T05:10:55.157Z,15.55
2022-07-28T05:13:22.270Z,15.59
2022-07-28T05:15:49.471Z,15.63
2022-07-28T05:18:16.723Z,15.66
2022-07-28T05:20:43.593Z,15.60
2022-07-28T05:23:11.689Z,16.18
2022-07-28T05:25:39.131Z,15.93
2022-07-28T05:28:05.990Z,15.80
2022-07-28T05:30:33.013Z,15.72
2022-07-28T05:33:01.863Z,15.63
2022-07-28T05:35:29.833Z,15.59
2022-07-28T05:37:57.001Z,15.62
2022-07-28T05:40:23.873Z,15.55
2022-07-28T05:42:50.740Z,15.59
2022-07-28T05:45:17.957Z,15.73
2022-07-28T05:47:48.023Z,15.63
2022-07-28T05:50:16.973Z,15.62
2022-07-28T05:52:44.941Z,15.65
2022-07-28T05:55:12.235Z,15.43
2022-07-28T05:57:40.207Z,15.48
2022-07-28T06:00:19.584Z,15.48
2022-07-28T06:02:49.578Z,15.55
2022-07-28T06:05:18.116Z,15.66
2022-07-28T06:07:46.599Z,15.58
2022-07-28T06:10:15.988Z,15.54
2022-07-28T06:12:44.475Z,15.73
2022-07-28T06:15:23.202Z,15.80
2022-07-28T06:17:52.707Z,15.84
2022-07-28T06:20:21.608Z,15.96
2022-07-28T06:22:51.244Z,16.02
2022-07-28T06:25:20.412Z,16.13
2022-07-28T06:27:48.916Z,16.13
2022-07-28T06:30:16.568Z,16.16
2022-07-28T06:32:44.392Z,16.15
2022-07-28T06:35:14.772Z,16.26
2022-07-28T06:37:44.805Z,16.37
2022-07-28T06:40:13.105Z,16.45
2022-07-28T06:42:42.510Z,16.65
2022-07-28T06:45:10.430Z,16.63
2022-07-28T06:47:53.234Z,16.50
2022-07-28T06:50:26.135Z,16.62
2022-07-28T06:52:58.715Z,16.77
2022-07-28T06:55:31.330Z,16.86
2022-07-28T06:58:02.391Z,16.79
2022-07-28T07:00:30.153Z,17.07
2022-07-28T07:03:00.601Z,17.18
2022-07-28T07:05:32.465Z,17.43
2022-07-28T07:08:00.049Z,17.15
2022-07-28T07:10:27.964Z,17.04
2022-07-28T07:12:55.367Z,16.85
2022-07-28T07:15:22.574Z,16.87
2022-07-28T07:17:49.755Z,17.15
2022-07-28T07:20:18.398Z,17.26
2022-07-28T07:22:47.340Z,17.29
2022-07-28T07:25:18.695Z,17.28
2022-07-28T07:27:46.383Z,17.03
2022-07-28T07:30:14.849Z,17.17
2022-07-28T07:32:42.202Z,17.17
2022-07-28T07:35:09.989Z,17.10
2022-07-28T07:37:37.709Z,17.11
2022-07-28T07:40:05.901Z,17.18
2022-07-28T07:42:32.941Z,16.87
2022-07-28T07:44:59.855Z,16.74
2022-07-28T07:47:26.978Z,17.02
2022-07-28T07:49:54.156Z,16.88
2022-07-28T07:52:21.100Z,17.05
2022-07-28T07:54:48.554Z,17.14
2022-07-28T07:57:15.624Z,17.08
2022-07-28T07:59:42.655Z,17.09
2022-07-28T08:02:09.842Z,17.25
2022-07-28T08:04:37.784Z,17.20
2022-07-28T08:07:06.481Z,17.15
2022-07-28T08:09:34.079Z,17.20
2022-07-28T08:12:01.334Z,17.11
2022-07-28T08:14:29.629Z,17.29
2022-07-28T08:16:59.265Z,17.39
2022-07-28T08:19:26.799Z,17.41
2022-07-28T08:21:55.474Z,17.50
2022-07-28T08:24:33.144Z,17.28
2022-07-28T08:27:01.999Z,17.55
2022-07-28T08:29:29.452Z,17.54
2022-07-28T08:31:56.729Z,17.59
2022-07-28T08:34:31.186Z,17.70
2022-07-28T08:37:02.142Z,17.65
2022-07-28T08:39:30.069Z,17.76
2022-07-28T08:42:07.176Z,17.79
2022-07-28T08:44:51.534Z,18.02
2022-07-28T08:47:20.133Z,17.88
2022-07-28T08:49:48.998Z,17.99
2022-07-28T08:52:20.434Z,18.18
2022-07-28T08:54:49.013Z,18.22
2022-07-28T08:57:30.787Z,18.59
2022-07-28T08:59:57.773Z,18.56
2022-07-28T09:02:29.395Z,18.67
2022-07-28T09:04:58.156Z,18.86
2022-07-28T09:07:26.905Z,18.91
2022-07-28T09:10:02.249Z,19.15
2022-07-28T09:12:29.772Z,19.01
2022-07-28T09:14:57.020Z,19.14
2022-07-28T09:17:24.255Z,19.14
2022-07-28T09:19:51.383Z,19.27
2022-07-28T09:22:18.306Z,19.26
2022-07-28T09:24:45.836Z,18.88
2022-07-28T09:27:14.601Z,19.08
2022-07-28T09:29:49.286Z,19.10
2022-07-28T09:32:19.010Z,18.94
2022-07-28T09:34:47.809Z,19.17
2022-07-28T09:37:27.029Z,19.26
2022-07-28T09:39:59.526Z,19.27
2022-07-28T09:42:44.651Z,19.37
2022-07-28T09:45:27.012Z,19.30
2022-07-28T09:48:20.623Z,19.38
2022-07-28T09:50:47.660Z,19.22
2022-07-28T09:53:22.395Z,19.42
2022-07-28T09:56:01.225Z,19.52
2022-07-28T09:58:32.580Z,19.79
2022-07-28T10:01:09.313Z,19.83
2022-07-28T10:03:41.133Z,19.75
2022-07-28T10:06:09.117Z,19.88
2022-07-28T10:08:44.049Z,20.35
2022-07-28T10:11:12.440Z,20.45
2022-07-28T10:14:09.062Z,19.36
2022-07-28T10:16:42.353Z,19.46
2022-07-28T10:19:10.032Z,19.84
2022-07-28T10:21:44.268Z,20.06
2022-07-28T10:24:21.017Z,20.04
2022-07-28T10:26:48.657Z,19.42
2022-07-28T10:29:18.557Z,19.57
2022-07-28T10:31:46.324Z,19.71
2022-07-28T10:34:24.787Z,19.57
2022-07-28T10:36:55.531Z,19.45
2022-07-28T10:39:25.289Z,19.40
2022-07-28T10:41:53.095Z,19.05
2022-07-28T10:44:20.167Z,19.25
2022-07-28T10:46:47.523Z,19.43
2022-07-28T10:49:14.886Z,19.69
2022-07-28T10:52:02.669Z,19.71
2022-07-28T10:54:41.161Z,19.70
2022-07-28T10:57:12.290Z,19.84
2022-07-28T10:59:45.322Z,19.84
2022-07-28T11:02:43.800Z,19.94
2022-07-28T11:05:27.837Z,20.40
2022-07-28T11:07:55.558Z,20.48
2022-07-28T11:10:23.359Z,21.16
2022-07-28T11:12:53.281Z,20.46
2022-07-28T11:15:28.400Z,20.33
2022-07-28T11:18:04.360Z,20.42
2022-07-28T11:20:53.217Z,20.71
2022-07-28T11:23:39.454Z,20.95
2022-07-28T11:26:24.337Z,20.63
2022-07-28T11:28:57.618Z,20.44
2022-07-28T11:31:46.535Z,20.25
2022-07-28T11:34:16.450Z,20.65
2022-07-28T11:37:15.140Z,20.80
2022-07-28T11:39:44.074Z,20.94
2022-07-28T11:42:31.072Z,20.30
2022-07-28T11:45:35.102Z,20.05
2022-07-28T11:48:15.457Z,19.98
2022-07-28T11:50:42.935Z,20.26
2022-07-28T11:53:10.656Z,20.55
2022-07-28T11:55:49.375Z,20.66
2022-07-28T11:58:25.801Z,20.54
2022-07-28T12:01:17.861Z,20.59
2022-07-28T12:03:54.947Z,20.35
2022-07-28T12:06:35.693Z,20.17
2022-07-28T12:09:04.507Z,20.27
2022-07-28T12:11:35.928Z,20.13
2022-07-28T12:14:05.496Z,20.24
2022-07-28T12:16:34.027Z,20.12
2022-07-28T12:19:03.277Z,20.34
2022-07-28T12:21:49.607Z,19.84
2022-07-28T12:24:21.122Z,20.07
2022-07-28T12:26:50.279Z,20.21
2022-07-28T12:29:19.807Z,20.42
2022-07-28T12:32:01.081Z,21.09
2022-07-28T12:34:33.449Z,21.36
2022-07-28T12:37:02.369Z,21.06
2022-07-28T12:39:31.022Z,21.20
2022-07-28T12:42:09.595Z,20.74
2022-07-28T12:44:38.083Z,20.77
2022-07-28T12:47:10.786Z,20.70
2022-07-28T12:49:39.738Z,20.56
2022-07-28T12:52:18.803Z,21.10
2022-07-28T12:54:53.504Z,21.67
2022-07-28T12:57:51.031Z,21.48
2022-07-28T13:00:26.091Z,21.05
2022-07-28T13:02:56.450Z,21.34
2022-07-28T13:05:31.326Z,21.27
2022-07-28T13:08:07.154Z,21.18
2022-07-28T13:10:33.976Z,21.28
2022-07-28T13:13:06.515Z,21.43
2022-07-28T13:15:33.820Z,21.59
2022-07-28T13:18:00.776Z,21.28
2022-07-28T13:20:28.225Z,21.25
2022-07-28T13:22:57.502Z,21.72
2022-07-28T13:25:24.644Z,21.30
2022-07-28T13:27:55.435Z,21.45
2022-07-28T13:30:23.561Z,21.58
2022-07-28T13:32:50.617Z,21.80
2022-07-28T13:35:18.951Z,21.95
2022-07-28T13:37:47.714Z,21.93
2022-07-28T13:40:14.664Z,22.77
2022-07-28T13:42:53.128Z,23.61
2022-07-28T13:45:24.154Z,23.81
2022-07-28T13:47:52.023Z,24.54
2022-07-28T13:50:19.709Z,24.57
2022-07-28T13:52:47.192Z,24.94
2022-07-28T13:55:16.056Z,25.46
2022-07-28T13:57:46.597Z,25.08
2022-07-28T14:00:17.987Z,25.59
2022-07-28T14:02:48.642Z,24.87
2022-07-28T14:05:16.183Z,25.60
2022-07-28T14:07:48.785Z,25.49
2022-07-28T14:10:19.368Z,25.59
2022-07-28T14:12:46.627Z,24.70
2022-07-28T14:15:13.588Z,24.69
2022-07-28T14:17:43.849Z,25.91
2022-07-28T14:20:14.033Z,25.88
2022-07-28T14:22:41.736Z,25.62
2022-07-28T14:25:09.555Z,25.49
2022-07-28T14:27:36.477Z,26.18
2022-07-28T14:30:04.424Z,25.98
2022-07-28T14:32:34.524Z,26.22
2022-07-28T14:35:01.956Z,25.99
2022-07-28T14:37:36.223Z,26.08
2022-07-28T14:40:14.628Z,25.84
2022-07-28T14:42:41.723Z,26.76
2022-07-28T14:45:08.997Z,26.70
2022-07-28T14:47:45.132Z,26.35
2022-07-28T14:50:12.798Z,26.34
2022-07-28T14:52:39.783Z,26.55
2022-07-28T14:55:06.956Z,26.62
2022-07-28T14:57:51.882Z,26.78
2022-07-28T15:00:21.986Z,26.80
2022-07-28T15:02:48.920Z,26.05
2022-07-28T15:05:15.759Z,26.54
2022-07-28T15:07:42.615Z,26.34
2022-07-28T15:10:10.593Z,25.88
2022-07-28T15:12:37.999Z,26.30
2022-07-28T15:15:05.701Z,25.93
2022-07-28T15:17:32.775Z,25.44
2022-07-28T15:19:59.609Z,26.39
2022-07-28T15:22:26.636Z,25.90
2022-07-28T15:24:54.136Z,25.75
2022-07-28T15:27:20.882Z,25.82
2022-07-28T15:29:52.276Z,25.92
2022-07-28T15:32:20.401Z,25.79
2022-07-28T15:34:55.302Z,25.42
2022-07-28T15:37:21.988Z,25.64
2022-07-28T15:39:48.874Z,26.02
2022-07-28T15:42:15.602Z,25.82
2022-07-28T15:44:42.557Z,25.77
2022-07-28T15:47:09.364Z,25.42
2022-07-28T15:49:36.197Z,25.30
2022-07-28T15:52:04.365Z,25.42
2022-07-28T15:54:31.366Z,25.58
2022-07-28T15:56:58.250Z,24.72
2022-07-28T15:59:26.738Z,24.99
2022-07-28T16:02:17.445Z,25.53
2022-07-28T16:04:47.190Z,25.10
2022-07-28T16:07:22.263Z,24.95
2022-07-28T16:09:51.246Z,25.14
2022-07-28T16:12:18.275Z,24.76
2022-07-28T16:14:45.176Z,24.61
2022-07-28T16:17:12.294Z,23.96
2022-07-28T16:19:48.884Z,23.61
2022-07-28T16:22:18.785Z,23.12
2022-07-28T16:24:47.416Z,22.83
2022-07-28T16:27:14.887Z,22.87
2022-07-28T16:29:42.662Z,22.73
2022-07-28T16:32:09.996Z,22.58
2022-07-28T16:34:36.848Z,22.35
2022-07-28T16:37:04.973Z,21.95
2022-07-28T16:39:34.286Z,21.73
2022-07-28T16:42:02.930Z,20.94
2022-07-28T16:44:30.361Z,21.19
2022-07-28T16:46:57.152Z,20.96
2022-07-28T16:49:24.610Z,21.08
2022-07-28T16:51:51.517Z,21.13
2022-07-28T16:54:18.899Z,20.91
2022-07-28T16:56:46.169Z,20.55
2022-07-28T16:59:12.934Z,20.63
2022-07-28T17:01:45.314Z,20.74
2022-07-28T17:04:15.158Z,20.29
2022-07-28T17:06:42.385Z,20.32
2022-07-28T17:09:09.603Z,20.27
2022-07-28T17:11:36.403Z,20.26
2022-07-28T17:14:04.717Z,20.05
2022-07-28T17:16:32.075Z,19.83
2022-07-28T17:18:59.507Z,19.97
2022-07-28T17:21:26.935Z,19.80
2022-07-28T17:23:53.886Z,19.68
2022-07-28T17:29:08.793Z,19.58
2022-07-28T17:31:36.397Z,19.38
2022-07-28T17:34:03.284Z,19.50
2022-07-28T17:36:34.017Z,19.29
2022-07-28T17:39:01.641Z,19.25
2022-07-28T17:41:28.899Z,19.10
2022-07-28T17:43:55.754Z,18.95
2022-07-28T17:46:22.934Z,18.95
2022-07-28T17:48:53.389Z,18.95
2022-07-28T17:51:20.214Z,18.70
2022-07-28T17:53:48.755Z,18.70
2022-07-28T17:56:16.859Z,18.77
2022-07-28T17:58:44.335Z,18.56
2022-07-28T18:01:12.724Z,18.46
2022-07-28T18:03:56.691Z,18.52
2022-07-28T18:06:25.423Z,18.38
2022-07-28T18:08:52.358Z,18.20
2022-07-28T18:11:19.187Z,18.13
2022-07-28T18:14:04.508Z,18.11
2022-07-28T18:16:35.371Z,18.15
2022-07-28T18:19:05.206Z,17.97
2022-07-28T18:21:32.242Z,17.80
2022-07-28T18:24:01.823Z,17.82
2022-07-28T18:26:28.568Z,17.75
2022-07-28T18:28:55.522Z,17.88
2022-07-28T18:31:22.538Z,17.79
2022-07-28T18:33:49.464Z,17.73
2022-07-28T18:36:16.636Z,17.68
2022-07-28T18:38:43.815Z,17.60
2022-07-28T18:41:10.720Z,17.60
2022-07-28T18:43:37.484Z,17.52
2022-07-28T18:46:04.407Z,17.45
2022-07-28T18:48:31.217Z,17.43
2022-07-28T18:50:58.842Z,17.35
2022-07-28T18:53:26.610Z,17.23
2022-07-28T18:55:53.307Z,17.17
2022-07-28T18:58:20.155Z,17.26
2022-07-28T19:00:47.411Z,17.20
2022-07-28T19:03:14.243Z,17.19
2022-07-28T19:05:45.763Z,17.06
2022-07-28T19:08:13.195Z,16.99
2022-07-28T19:10:40.452Z,16.88
2022-07-28T19:13:12.779Z,16.86
2022-07-28T19:15:41.139Z,16.84
2022-07-28T19:18:10.407Z,16.74
2022-07-28T19:20:40.002Z,16.64
2022-07-28T19:23:07.079Z,16.51
2022-07-28T19:25:36.376Z,16.47
2022-07-28T19:28:04.561Z,16.49
2022-07-28T19:30:32.470Z,16.47
2022-07-28T19:33:00.269Z,16.39
2022-07-28T19:35:27.301Z,16.28
2022-07-28T19:37:56.418Z,16.11
2022-07-28T19:40:25.299Z,16.13
2022-07-28T19:42:53.426Z,15.99
2022-07-28T19:45:20.244Z,15.99
2022-07-28T19:47:47.328Z,15.99
2022-07-28T19:50:16.787Z,15.99
2022-07-28T19:52:43.567Z,15.92
2022-07-28T19:55:10.259Z,15.89
2022-07-28T19:57:37.200Z,15.87
2022-07-28T20:00:07.301Z,15.76
2022-07-28T20:02:34.371Z,15.65
2022-07-28T20:05:01.189Z,15.60
2022-07-28T20:07:29.143Z,15.60
2022-07-28T20:09:56.067Z,15.55
2022-07-28T20:12:22.883Z,15.51
2022-07-28T20:14:50.438Z,15.49
2022-07-28T20:17:37.039Z,15.39
2022-07-28T20:20:05.978Z,15.33
2022-07-28T20:22:32.894Z,15.32
2022-07-28T20:24:59.698Z,15.30
2022-07-28T20:27:26.694Z,15.21
2022-07-28T20:29:53.666Z,15.12
2022-07-28T20:32:20.569Z,14.96
2022-07-28T20:34:48.270Z,14.97
2022-07-28T20:37:24.513Z,15.06
2022-07-28T20:40:02.106Z,14.89
2022-07-28T20:42:28.820Z,14.78
2022-07-28T20:44:55.565Z,14.71
2022-07-28T20:47:23.338Z,14.66
2022-07-28T20:49:50.958Z,14.58
2022-07-28T20:52:17.874Z,14.57
2022-07-28T20:54:44.853Z,14.53
2022-07-28T20:57:11.924Z,14.56
2022-07-28T20:59:38.987Z,14.52
2022-07-28T21:02:05.981Z,14.48
2022-07-28T21:04:32.747Z,14.48
2022-07-28T21:07:02.178Z,14.48
2022-07-28T21:09:30.982Z,14.38
2022-07-28T21:11:57.834Z,14.33
2022-07-28T21:14:24.617Z,14.22
2022-07-28T21:16:51.436Z,14.07
2022-07-28T21:19:18.260Z,14.04
2022-07-28T21:21:45.085Z,14.01
2022-07-28T21:24:12.083Z,13.95
2022-07-28T21:26:41.988Z,13.94
2022-07-28T21:29:12.572Z,13.92
2022-07-28T21:32:04.811Z,13.92
2022-07-28T21:34:28.397Z,13.94
2022-07-28T21:36:55.600Z,13.95
2022-07-28T21:39:23.226Z,13.93
2022-07-28T21:41:49.909Z,13.85
2022-07-28T21:44:16.804Z,13.92
2022-07-28T21:46:45.699Z,13.91
2022-07-28T21:49:12.934Z,13.76
2022-07-28T21:51:39.991Z,13.86
2022-07-28T21:54:07.052Z,13.76
2022-07-28T21:56:34.433Z,13.59
2022-07-28T21:59:02.075Z,13.59
2022-07-28T22:01:28.928Z,13.48
2022-07-28T22:03:55.819Z,13.40
2022-07-28T22:06:23.206Z,13.35
2022-07-28T22:08:53.576Z,13.25
2022-07-28T22:11:22.311Z,13.22
2022-07-28T22:13:49.372Z,13.19
2022-07-28T22:16:16.198Z,13.17
2022-07-28T22:18:42.977Z,13.08
2022-07-28T22:21:09.884Z,13.03
2022-07-28T22:23:36.601Z,13.03
2022-07-28T22:26:03.732Z,12.91
2022-07-28T22:28:30.971Z,12.92
2022-07-28T22:30:59.000Z,12.90
2022-07-28T22:33:38.034Z,12.89
2022-07-28T22:36:06.631Z,12.93
2022-07-28T22:38:33.368Z,12.88
2022-07-28T22:41:00.179Z,12.74
2022-07-28T22:43:26.910Z,12.69
2022-07-28T22:45:53.891Z,12.72
2022-07-28T22:48:20.706Z,12.73
2022-07-28T22:50:47.429Z,12.73
2022-07-28T22:53:14.302Z,12.73
2022-07-28T22:55:41.115Z,12.78
2022-07-28T22:58:07.856Z,12.67
2022-07-28T23:00:36.484Z,12.58
2022-07-28T23:03:04.960Z,12.65
2022-07-28T23:05:32.197Z,12.66
2022-07-28T23:07:59.155Z,12.67
2022-07-28T23:10:26.503Z,12.61
2022-07-28T23:12:56.167Z,12.52
2022-07-28T23:15:40.411Z,12.48
2022-07-28T23:18:13.591Z,12.45
2022-07-28T23:20:41.121Z,12.45
2022-07-28T23:23:08.079Z,12.49
2022-07-28T23:25:42.935Z,12.40
2022-07-28T23:28:11.213Z,12.44
2022-07-28T23:30:38.478Z,12.35
2022-07-28T23:33:06.047Z,12.32
2022-07-28T23:35:33.836Z,12.34
2022-07-28T23:38:00.674Z,12.36
2022-07-28T23:40:27.703Z,12.35
2022-07-28T23:42:54.577Z,12.35
2022-07-28T23:45:21.503Z,12.28
2022-07-28T23:47:48.537Z,12.28
2022-07-28T23:50:15.500Z,12.32
2022-07-28T23:52:42.506Z,12.29
2022-07-28T23:55:09.598Z,12.25
2022-07-28T23:57:36.634Z,12.30
